Time;durP1;ratioP1;P1;durP2;ratioP2;P2;SDS_P1;SDS_P2;PMS_P1;PMS_P2;Temp;Humidity;BMP_temperature;BMP_pressure;BME280_temperature;BME280_humidity;BME280_pressure;Samples;Min_cycle;Max_cycle;Signal;HPM_P1;HPM_P2
2022/09/13 00:00:45;;;;;;;0.10;0.10;;;10.90;99.90;;;;;;5009063;28;20106;-77
2022/09/13 00:03:12;;;;;;;0.00;0.00;;;10.80;99.90;;;;;;5011482;28;20030;-76
2022/09/13 00:05:43;;;;;;;0.10;0.10;;;10.80;99.90;;;;;;5012556;28;20073;-76
2022/09/13 00:08:15;;;;;;;0.10;0.10;;;10.80;99.90;;;;;;4996740;28;20062;-76
2022/09/13 00:11:24;;;;;;;0.10;0.10;;;12.70;99.90;;;;;;5006148;28;20030;-77
2022/09/13 00:13:51;;;;;;;0.10;0.10;;;10.70;99.90;;;;;;4997430;28;20061;-77
2022/09/13 00:16:32;;;;;;;0.00;0.00;;;10.60;99.90;;;;;;5003189;28;20538;-76
2022/09/13 00:19:05;;;;;;;0.00;0.00;;;10.60;99.90;;;;;;5075761;28;20037;-77
2022/09/13 00:21:54;;;;;;;0.10;0.10;;;10.00;99.90;;;;;;5088711;28;20041;-77
2022/09/13 00:24:37;;;;;;;0.10;0.10;;;10.60;99.90;;;;;;5073503;28;20077;-76
2022/09/13 00:27:32;;;;;;;0.10;0.10;;;10.50;99.90;;;;;;5061607;28;20088;-77
2022/09/13 00:30:07;;;;;;;0.00;0.00;;;10.50;99.90;;;;;;5058064;28;20055;-79
2022/09/13 00:32:36;;;;;;;0.10;0.10;;;10.90;99.90;;;;;;5023399;28;20033;-79
2022/09/13 00:35:16;;;;;;;0.10;0.10;;;8.10;99.90;;;;;;5043464;28;20037;-76
2022/09/13 00:38:11;;;;;;;0.10;0.10;;;10.40;99.90;;;;;;5071336;28;20039;-76
2022/09/13 00:40:37;;;;;;;0.10;0.10;;;10.40;99.90;;;;;;5062099;28;20041;-78
2022/09/13 00:43:14;;;;;;;0.00;0.00;;;10.40;99.90;;;;;;5067806;28;20061;-76
2022/09/13 00:45:58;;;;;;;0.10;0.10;;;10.40;99.90;;;;;;5065034;28;20037;-77
2022/09/13 00:48:32;;;;;;;0.00;0.00;;;10.40;99.90;;;;;;5071746;28;20032;-77
2022/09/13 00:51:51;;;;;;;0.00;0.00;;;10.50;99.90;;;;;;5066409;28;20160;-77
2022/09/13 00:55:01;;;;;;;0.10;0.10;;;10.40;99.90;;;;;;5027145;28;20061;-77
2022/09/13 00:57:29;;;;;;;0.08;0.08;;;10.40;99.90;;;;;;5055712;28;20075;-77
2022/09/13 01:00:17;;;;;;;0.10;0.10;;;10.30;99.90;;;;;;5056319;28;20037;-77
2022/09/13 01:02:53;;;;;;;0.10;0.10;;;10.60;99.90;;;;;;5055609;28;20036;-78
2022/09/13 01:05:48;;;;;;;0.05;0.05;;;10.30;99.90;;;;;;5064223;28;20037;-76
2022/09/13 01:08:21;;;;;;;0.10;0.10;;;10.20;99.90;;;;;;5054356;28;20044;-77
2022/09/13 01:10:55;;;;;;;0.10;0.10;;;10.20;99.90;;;;;;5050617;28;20028;-79
2022/09/13 01:14:01;;;;;;;0.05;0.05;;;10.20;99.90;;;;;;5059179;28;20025;-77
2022/09/13 01:16:39;;;;;;;0.03;0.03;;;10.20;99.90;;;;;;5052518;28;20032;-78
2022/09/13 01:19:31;;;;;;;0.00;0.00;;;9.90;99.90;;;;;;5057388;28;20322;-77
2022/09/13 01:22:47;;;;;;;0.10;0.10;;;10.60;99.90;;;;;;5069843;28;20385;-77
2022/09/13 01:26:00;;;;;;;0.10;0.10;;;10.40;99.90;;;;;;5071200;28;20498;-77
2022/09/13 01:29:05;;;;;;;0.00;0.00;;;10.20;99.90;;;;;;5003465;28;20049;-77
2022/09/13 01:32:09;;;;;;;0.10;0.10;;;7.60;99.90;;;;;;4975626;28;20125;-77
2022/09/13 01:35:23;;;;;;;0.10;0.10;;;10.10;99.90;;;;;;5005954;28;20477;-77
2022/09/13 01:39:11;;;;;;;0.00;0.00;;;10.00;99.90;;;;;;5006548;28;20094;-77
2022/09/13 01:42:41;;;;;;;0.10;0.10;;;10.00;99.90;;;;;;4875042;29;20723;-78
2022/09/13 01:45:49;;;;;;;0.00;0.00;;;9.90;99.90;;;;;;4878330;29;20037;-77
2022/09/13 01:48:53;;;;;;;0.00;0.00;;;10.00;99.90;;;;;;4878390;29;20041;-77
2022/09/13 01:52:16;;;;;;;0.10;0.10;;;9.80;99.90;;;;;;4874834;29;20120;-78
2022/09/13 01:56:02;;;;;;;0.10;0.10;;;9.80;99.90;;;;;;4878437;29;21468;-77
2022/09/13 01:59:00;;;;;;;0.00;0.00;;;9.70;99.90;;;;;;4859963;29;20057;-77
2022/09/13 02:02:02;;;;;;;0.00;0.00;;;9.60;99.90;;;;;;4861095;29;20049;-77
2022/09/13 02:04:53;;;;;;;0.00;0.00;;;9.70;99.90;;;;;;4871415;29;20051;-77
2022/09/13 02:07:57;;;;;;;0.00;0.00;;;10.00;99.90;;;;;;4915070;29;20040;-77
2022/09/13 02:10:55;;;;;;;0.10;0.10;;;10.80;99.90;;;;;;4909690;29;20032;-77
2022/09/13 02:13:49;;;;;;;0.08;0.08;;;9.80;99.90;;;;;;4897576;29;20132;-77
2022/09/13 02:16:25;;;;;;;0.00;0.00;;;9.80;99.90;;;;;;4884259;29;20040;-77
2022/09/13 02:19:17;;;;;;;0.10;0.10;;;9.80;99.90;;;;;;4995713;28;20113;-76
2022/09/13 02:21:52;;;;;;;0.00;0.00;;;9.80;99.90;;;;;;4991255;28;20570;-78
2022/09/13 02:24:50;;;;;;;0.00;0.00;;;9.80;99.90;;;;;;4975667;28;20862;-78
2022/09/13 02:27:24;;;;;;;0.00;0.00;;;12.10;99.90;;;;;;5004003;28;20044;-78
2022/09/13 02:29:55;;;;;;;0.00;0.00;;;10.00;99.90;;;;;;5032900;28;20672;-78
2022/09/13 02:32:35;;;;;;;0.40;0.40;;;10.10;99.90;;;;;;5016479;28;20462;-78
2022/09/13 02:35:13;;;;;;;0.00;0.00;;;10.10;99.90;;;;;;5064760;28;20265;-77
2022/09/13 02:37:59;;;;;;;0.10;0.10;;;10.40;99.90;;;;;;5093936;28;20047;-78
2022/09/13 02:40:33;;;;;;;0.10;0.10;;;10.10;99.90;;;;;;5092897;28;20032;-78
2022/09/13 02:43:08;;;;;;;0.00;0.00;;;10.10;99.90;;;;;;5075046;28;20228;-78
2022/09/13 02:46:25;;;;;;;0.10;0.10;;;9.50;99.90;;;;;;5103893;28;20035;-77
2022/09/13 02:49:33;;;;;;;0.10;0.10;;;6.40;99.90;;;;;;4962979;29;20269;-77
2022/09/13 02:52:20;;;;;;;0.10;0.10;;;;;;;;;;4939201;29;20049;-77
2022/09/13 02:55:35;;;;;;;0.00;0.00;;;10.00;99.90;;;;;;4968356;29;20023;-78
2022/09/13 02:58:41;;;;;;;0.10;0.10;;;10.00;99.90;;;;;;4880925;29;20040;-77
2022/09/13 03:01:12;;;;;;;0.00;0.00;;;10.10;99.90;;;;;;4894762;29;20028;-77
2022/09/13 03:03:57;;;;;;;0.10;0.10;;;10.10;99.90;;;;;;4896740;29;20037;-76
2022/09/13 03:06:27;;;;;;;0.10;0.10;;;10.10;99.90;;;;;;4887470;29;20029;-77
2022/09/13 03:09:22;;;;;;;0.10;0.10;;;10.20;99.90;;;;;;4890075;29;20047;-76
2022/09/13 03:12:24;;;;;;;0.08;0.08;;;10.10;99.90;;;;;;4869010;29;20097;-77
2022/09/13 03:15:28;;;;;;;0.00;0.00;;;9.80;99.90;;;;;;4881992;29;20029;-77
2022/09/13 03:18:25;;;;;;;0.10;0.10;;;12.30;99.90;;;;;;4893144;29;20033;-77
2022/09/13 03:21:59;;;;;;;0.08;0.08;;;9.70;99.90;;;;;;4895520;29;20041;-77
2022/09/13 03:24:49;;;;;;;0.10;0.10;;;9.80;99.90;;;;;;4846507;29;20026;-78
2022/09/13 03:27:52;;;;;;;0.00;0.00;;;9.70;99.90;;;;;;4854892;29;20030;-78
2022/09/13 03:31:05;;;;;;;0.00;0.00;;;9.70;99.90;;;;;;4863125;29;20057;-74
2022/09/13 03:34:18;;;;;;;0.05;0.05;;;9.60;99.90;;;;;;5109043;23;20064;-80
2022/09/13 03:37:07;;;;;;;0.00;0.00;;;9.60;99.90;;;;;;5078979;28;20021;-78
2022/09/13 03:40:03;;;;;;;0.30;0.30;;;9.50;99.90;;;;;;5086643;28;20044;-77
2022/09/13 03:42:32;;;;;;;0.00;0.00;;;;;;;;;;5067717;28;20040;-77
2022/09/13 03:45:22;;;;;;;0.00;0.00;;;9.40;99.90;;;;;;5092176;28;20031;-77
2022/09/13 03:47:59;;;;;;;0.00;0.00;;;9.40;99.90;;;;;;5078816;28;20039;-77
2022/09/13 03:50:35;;;;;;;0.00;0.00;;;6.20;99.90;;;;;;5077995;28;20115;-77
2022/09/13 03:53:29;;;;;;;1.00;1.00;;;9.90;99.90;;;;;;5056705;28;20506;-77
2022/09/13 03:56:28;;;;;;;0.00;0.00;;;9.30;99.90;;;;;;5091034;28;20029;-77
2022/09/13 03:58:55;;;;;;;0.00;0.00;;;9.80;99.90;;;;;;5080386;28;20029;-77
2022/09/13 04:01:27;;;;;;;0.00;0.00;;;9.30;99.90;;;;;;5076037;28;20012;-77
2022/09/13 04:04:37;;;;;;;0.00;0.00;;;9.30;99.90;;;;;;5080495;28;20040;-77
2022/09/13 04:07:09;;;;;;;0.00;0.00;;;9.30;99.90;;;;;;5066448;28;20012;-78
2022/09/13 04:09:41;;;;;;;0.00;0.00;;;9.40;99.90;;;;;;5095390;28;20039;-77
2022/09/13 04:12:16;;;;;;;0.00;0.00;;;9.60;99.90;;;;;;5067583;28;20067;-78
2022/09/13 04:14:57;;;;;;;0.00;0.00;;;5.90;99.90;;;;;;5067633;28;20058;-78
2022/09/13 04:17:32;;;;;;;0.10;0.10;;;9.30;99.90;;;;;;5078543;28;20033;-77
2022/09/13 04:19:59;;;;;;;0.00;0.00;;;;;;;;;;5088810;28;20029;-77
2022/09/13 04:22:54;;;;;;;0.00;0.00;;;9.20;99.90;;;;;;5098257;28;20062;-77
2022/09/13 04:25:21;;;;;;;0.00;0.00;;;9.20;99.90;;;;;;5075284;28;20116;-78
2022/09/13 04:27:54;;;;;;;0.00;0.00;;;9.10;99.90;;;;;;5078555;28;20577;-78
2022/09/13 04:30:28;;;;;;;0.00;0.00;;;9.10;99.90;;;;;;5076889;28;20020;-78
2022/09/13 04:33:22;;;;;;;0.00;0.00;;;9.00;99.90;;;;;;5099949;28;20036;-77
2022/09/13 04:35:56;;;;;;;0.10;0.10;;;9.10;99.90;;;;;;5100979;28;20029;-78
2022/09/13 04:38:37;;;;;;;0.00;0.00;;;9.10;99.90;;;;;;5115769;28;20048;-79
2022/09/13 04:41:33;;;;;;;0.10;0.10;;;8.20;99.90;;;;;;5110366;28;20018;-77
2022/09/13 04:44:16;;;;;;;0.00;0.00;;;9.10;99.90;;;;;;5115300;28;20025;-77
2022/09/13 04:46:56;;;;;;;0.00;0.00;;;9.10;99.90;;;;;;5096936;28;20038;-77
2022/09/13 04:49:48;;;;;;;0.00;0.00;;;9.20;99.90;;;;;;5105797;28;20052;-77
2022/09/13 04:52:55;;;;;;;0.00;0.00;;;9.20;99.90;;;;;;5069079;28;20024;-77
2022/09/13 04:57:59;;;;;;;0.00;0.00;;;9.30;99.90;;;;;;5030332;28;20539;-77
2022/09/13 05:00:34;;;;;;;0.00;0.00;;;9.30;99.90;;;;;;5053958;28;20025;-76
2022/09/13 05:03:28;;;;;;;;;;;6.40;99.90;;;;;;5037774;28;20436;-76
2022/09/13 05:06:02;;;;;;;;;;;9.10;99.90;;;;;;5055696;28;19909;-76
2022/09/13 05:08:50;;;;;;;0.00;0.00;;;9.30;99.90;;;;;;5040641;28;19955;-76
2022/09/13 05:11:37;;;;;;;0.08;0.08;;;6.40;99.90;;;;;;5057368;28;20059;-77
2022/09/13 05:14:26;;;;;;;0.00;0.00;;;9.40;99.90;;;;;;5044226;28;20112;-76
2022/09/13 05:16:55;;;;;;;0.10;0.10;;;9.50;99.90;;;;;;5040886;28;20133;-77
2022/09/13 05:19:57;;;;;;;0.08;0.08;;;9.50;99.90;;;;;;5036153;28;20128;-77
2022/09/13 05:22:26;;;;;;;0.00;0.00;;;9.50;99.90;;;;;;5035533;28;20033;-77
2022/09/13 05:24:55;;;;;;;0.10;0.10;;;9.80;99.90;;;;;;5039059;28;20040;-76
2022/09/13 05:28:21;;;;;;;0.10;0.10;;;9.60;99.90;;;;;;5047651;28;20028;-76
2022/09/13 05:31:19;;;;;;;0.00;0.00;;;9.50;99.90;;;;;;4938597;29;20036;-76
2022/09/13 05:34:12;;;;;;;0.00;0.00;;;9.70;99.90;;;;;;4935017;29;20388;-77
2022/09/13 05:36:55;;;;;;;0.00;0.00;;;9.90;99.90;;;;;;4930272;29;20024;-76
2022/09/13 05:39:28;;;;;;;0.00;0.00;;;10.00;99.90;;;;;;4910924;29;20047;-76
2022/09/13 05:42:21;;;;;;;0.10;0.10;;;10.00;99.90;;;;;;4911998;29;20147;-77
2022/09/13 05:44:47;;;;;;;0.10;0.10;;;10.20;99.90;;;;;;4934057;29;20036;-77
2022/09/13 05:47:45;;;;;;;0.10;0.10;;;10.40;99.90;;;;;;4908113;28;20064;-77
2022/09/13 05:50:13;;;;;;;0.05;0.05;;;10.50;99.90;;;;;;4918152;29;20128;-78
2022/09/13 05:52:40;;;;;;;0.08;0.08;;;11.20;99.90;;;;;;4902880;29;20055;-78
2022/09/13 05:55:31;;;;;;;0.10;0.10;;;10.90;99.90;;;;;;4913148;29;20064;-78
2022/09/13 05:57:58;;;;;;;0.10;0.10;;;10.80;99.90;;;;;;4925086;29;20047;-76
2022/09/13 06:00:39;;;;;;;0.10;0.10;;;11.30;99.90;;;;;;4933098;29;20083;-78
2022/09/13 06:03:18;;;;;;;0.10;0.10;;;11.40;99.90;;;;;;4962181;29;20012;-79
2022/09/13 06:05:52;;;;;;;0.10;0.10;;;10.90;99.90;;;;;;4964016;28;20098;-80
2022/09/13 06:09:13;;;;;;;0.10;0.10;;;10.50;99.90;;;;;;5039817;28;20025;-79
2022/09/13 06:11:39;;;;;;;0.05;0.05;;;11.20;99.90;;;;;;5051846;28;20033;-79
2022/09/13 06:14:40;;;;;;;;;;;;;;;;;;;;;
2022/09/13 06:17:57;;;;;;;0.10;0.10;;;12.10;99.90;;;;;;5062257;28;20036;-85
2022/09/13 06:20:46;;;;;;;0.10;0.10;;;12.30;99.90;;;;;;5022693;28;20045;-78
2022/09/13 06:23:17;;;;;;;4.68;2.80;;;11.60;99.90;;;;;;5024923;28;20034;-78
2022/09/13 06:25:46;;;;;;;0.10;0.10;;;13.80;99.90;;;;;;5001727;28;20049;-79
2022/09/13 06:28:17;;;;;;;0.10;0.10;;;12.10;99.90;;;;;;5008255;28;20810;-78
2022/09/13 06:30:43;;;;;;;0.10;0.10;;;9.30;99.90;;;;;;5010552;28;20045;-78
2022/09/13 06:33:18;;;;;;;0.10;0.10;;;9.10;99.90;;;;;;4993407;28;20067;-78
2022/09/13 06:35:47;;;;;;;0.10;0.10;;;12.90;99.90;;;;;;4995200;28;20716;-76
2022/09/13 06:38:23;;;;;;;0.20;0.20;;;12.10;99.90;;;;;;5016047;28;20026;-78
2022/09/13 06:41:36;;;;;;;0.10;0.10;;;12.20;99.90;;;;;;4957093;28;20065;-78
2022/09/13 06:44:23;;;;;;;0.10;0.10;;;12.20;99.90;;;;;;4951660;29;20093;-79
2022/09/13 06:46:55;;;;;;;0.10;0.10;;;12.50;99.90;;;;;;4952052;29;20032;-77
2022/09/13 06:49:22;;;;;;;10.70;9.80;;;12.60;99.90;;;;;;4959976;29;20175;-79
2022/09/13 06:51:50;;;;;;;0.10;0.10;;;12.80;99.90;;;;;;4972307;28;20526;-84
2022/09/13 06:54:19;;;;;;;0.10;0.10;;;13.20;99.90;;;;;;4987128;28;20113;-79
2022/09/13 06:56:45;;;;;;;0.10;0.10;;;13.30;99.90;;;;;;4986998;28;20062;-82
2022/09/13 06:59:11;;;;;;;0.10;0.10;;;12.80;99.90;;;;;;4984772;28;20045;-85
2022/09/13 07:01:45;;;;;;;0.10;0.10;;;13.00;99.90;;;;;;4983819;28;20105;-83
2022/09/13 07:04:15;;;;;;;0.10;0.10;;;13.10;99.90;;;;;;4974548;28;20574;-80
2022/09/13 07:06:49;;;;;;;0.10;0.10;;;11.30;99.90;;;;;;4974907;28;20563;-78
2022/09/13 07:09:21;;;;;;;0.55;0.55;;;13.50;99.90;;;;;;4996542;28;20899;-82
2022/09/13 07:11:58;;;;;;;0.10;0.10;;;13.70;99.90;;;;;;4986516;28;20030;-78
2022/09/13 07:14:46;;;;;;;0.10;0.10;;;13.90;99.90;;;;;;4985499;28;20039;-79
2022/09/13 07:17:19;;;;;;;0.10;0.10;;;15.00;99.90;;;;;;4992111;28;20018;-78
2022/09/13 07:19:47;;;;;;;0.10;0.10;;;14.10;99.90;;;;;;4991888;28;20661;-80
2022/09/13 07:22:14;;;;;;;0.10;0.10;;;14.40;99.90;;;;;;5024034;28;20025;-83
2022/09/13 07:24:49;;;;;;;2.30;2.20;;;14.60;99.90;;;;;;5032335;28;20018;-83
2022/09/13 07:27:21;;;;;;;0.10;0.10;;;14.70;99.90;;;;;;5037300;28;20034;-77
2022/09/13 07:29:47;;;;;;;0.10;0.10;;;14.70;99.90;;;;;;5038881;28;20022;-79
2022/09/13 07:32:16;;;;;;;0.10;0.10;;;15.00;99.90;;;;;;5017960;28;20028;-79
2022/09/13 07:34:45;;;;;;;0.10;0.10;;;15.10;99.90;;;;;;5011732;28;20062;-86
2022/09/13 07:37:25;;;;;;;0.10;0.10;;;15.50;99.90;;;;;;5023652;28;20021;-77
2022/09/13 07:39:51;;;;;;;0.10;0.10;;;15.30;99.90;;;;;;5028123;28;20274;-90
2022/09/13 07:42:19;;;;;;;0.17;0.17;;;18.70;99.90;;;;;;5030946;28;20624;-78
2022/09/13 07:44:45;;;;;;;0.10;0.10;;;15.60;99.90;;;;;;5032559;28;20056;-83
2022/09/13 07:47:11;;;;;;;0.40;0.40;;;15.80;99.90;;;;;;5043536;28;20022;-81
2022/09/13 07:49:41;;;;;;;0.00;0.00;;;14.90;99.90;;;;;;5038419;28;20026;-77
2022/09/13 07:52:13;;;;;;;0.10;0.10;;;14.00;99.90;;;;;;5033112;28;20264;-83
2022/09/13 07:54:39;;;;;;;0.08;0.08;;;16.40;99.90;;;;;;5033344;28;20331;-81
2022/09/13 07:57:07;;;;;;;0.10;0.10;;;16.50;99.90;;;;;;5043069;23;20053;-85
2022/09/13 07:59:38;;;;;;;0.10;0.10;;;16.70;99.90;;;;;;5012504;28;20033;-80
2022/09/13 08:02:17;;;;;;;0.10;0.10;;;17.00;99.90;;;;;;4992487;28;20052;-90
2022/09/13 08:04:49;;;;;;;0.10;0.10;;;17.10;99.90;;;;;;5024904;23;20092;-90
2022/09/13 08:07:17;;;;;;;0.10;0.10;;;17.10;99.90;;;;;;5032220;28;20037;-79
2022/09/13 08:09:49;;;;;;;0.10;0.10;;;17.30;99.90;;;;;;5015965;28;20040;-90
2022/09/13 08:12:22;;;;;;;0.10;0.10;;;17.30;99.90;;;;;;5040520;28;20022;-86
2022/09/13 08:14:50;;;;;;;0.10;0.10;;;16.60;99.90;;;;;;5032287;28;20255;-82
2022/09/13 08:17:16;;;;;;;0.17;0.17;;;17.40;99.90;;;;;;5034222;28;20044;-84
2022/09/13 08:19:42;;;;;;;0.10;0.10;;;17.40;99.90;;;;;;5036980;28;20021;-78
2022/09/13 08:22:10;;;;;;;0.10;0.10;;;17.40;99.90;;;;;;5022625;28;20029;-78
2022/09/13 08:24:36;;;;;;;0.10;0.10;;;17.50;99.90;;;;;;5035217;28;20025;-79
2022/09/13 08:27:09;;;;;;;0.10;0.10;;;17.70;99.90;;;;;;5031599;28;20017;-78
2022/09/13 08:29:35;;;;;;;0.00;0.00;;;17.60;99.90;;;;;;5010624;28;20039;-77
2022/09/13 08:32:01;;;;;;;0.10;0.10;;;17.80;99.90;;;;;;5008966;28;20053;-76
2022/09/13 08:34:37;;;;;;;0.10;0.10;;;17.90;99.90;;;;;;5029249;28;20624;-76
2022/09/13 08:37:03;;;;;;;0.10;0.10;;;18.00;99.90;;;;;;5009069;28;20095;-76
2022/09/13 08:39:33;;;;;;;0.10;0.10;;;19.00;99.90;;;;;;5012869;28;20033;-81
2022/09/13 08:42:20;;;;;;;0.20;0.20;;;18.20;99.90;;;;;;5033188;28;20026;-77
2022/09/13 08:45:00;;;;;;;0.10;0.10;;;18.30;99.90;;;;;;5030984;28;20109;-87
2022/09/13 08:48:10;;;;;;;0.10;0.10;;;18.60;99.90;;;;;;5033052;28;20211;-79
2022/09/13 08:50:39;;;;;;;0.10;0.10;;;18.50;99.90;;;;;;5035223;28;20561;-86
2022/09/13 08:53:57;;;;;;;0.10;0.10;;;19.10;99.90;;;;;;5014376;28;20022;-78
2022/09/13 08:56:28;;;;;;;0.10;0.10;;;19.40;99.90;;;;;;4925695;29;20035;-77
2022/09/13 08:59:12;;;;;;;0.05;0.05;;;19.70;99.50;;;;;;4932268;29;20059;-78
2022/09/13 09:01:47;;;;;;;0.10;0.10;;;19.90;99.90;;;;;;4928776;29;20028;-77
2022/09/13 09:04:19;;;;;;;0.00;0.00;;;20.10;99.90;;;;;;4929125;29;20082;-86
2022/09/13 09:06:45;;;;;;;0.10;0.10;;;20.00;98.50;;;;;;4921687;29;20094;-82
2022/09/13 09:09:20;;;;;;;0.10;0.10;;;20.20;98.20;;;;;;4931132;29;20702;-85
2022/09/13 09:12:14;;;;;;;0.15;0.15;;;20.10;98.30;;;;;;4915818;29;20206;-77
2022/09/13 09:14:46;;;;;;;0.10;0.10;;;20.30;98.10;;;;;;4930660;29;20047;-82
2022/09/13 09:17:14;;;;;;;0.32;0.32;;;;;;;;;;4912579;29;20207;-82
2022/09/13 09:19:45;;;;;;;0.10;0.10;;;20.50;97.00;;;;;;4927951;28;20643;-93
2022/09/13 09:22:17;;;;;;;0.10;0.10;;;20.70;97.00;;;;;;4930873;29;20024;-95
2022/09/13 09:24:49;;;;;;;0.00;0.00;;;20.60;96.70;;;;;;4931296;28;20020;-79
2022/09/13 09:27:18;;;;;;;0.00;0.00;;;20.90;96.70;;;;;;4981928;28;20387;-77
2022/09/13 09:29:46;;;;;;;0.10;0.10;;;21.30;95.20;;;;;;4982872;28;20022;-77
2022/09/13 09:32:55;;;;;;;0.10;0.10;;;21.00;94.80;;;;;;4985466;28;20049;-81
2022/09/13 09:36:04;;;;;;;0.10;0.10;;;21.20;95.20;;;;;;4951603;28;20039;-77
2022/09/13 09:38:40;;;;;;;0.00;0.00;;;21.10;95.10;;;;;;4921984;29;20047;-92
2022/09/13 09:41:27;;;;;;;0.10;0.10;;;21.50;94.90;;;;;;4908533;29;20032;-84
2022/09/13 09:44:21;;;;;;;0.00;0.00;;;21.60;93.60;;;;;;4923442;29;20091;-78
2022/09/13 09:47:11;;;;;;;0.08;0.08;;;21.80;92.30;;;;;;4911514;29;20044;-78
2022/09/13 09:52:55;;;;;;;0.08;0.08;;;21.90;90.30;;;;;;4935787;29;20401;-78
2022/09/13 09:55:30;;;;;;;0.55;0.55;;;22.00;87.20;;;;;;4920188;29;20027;-80
2022/09/13 09:57:57;;;;;;;0.10;0.10;;;23.90;90.30;;;;;;4917978;29;20450;-77
2022/09/13 10:00:33;;;;;;;0.00;0.00;;;22.20;90.00;;;;;;4932574;29;20046;-84
2022/09/13 10:03:06;;;;;;;0.10;0.10;;;22.40;85.30;;;;;;4933211;29;20149;-81
2022/09/13 10:05:33;;;;;;;;;;;22.30;86.30;;;;;;4930842;29;20044;-85
2022/09/13 10:08:05;;;;;;;0.00;0.00;;;22.30;86.40;;;;;;4912533;29;19910;-82
2022/09/13 10:10:36;;;;;;;0.10;0.10;;;22.30;87.60;;;;;;4924527;29;20059;-84
2022/09/13 10:13:16;;;;;;;0.00;0.00;;;22.40;88.80;;;;;;4995584;28;20110;-81
2022/09/13 10:16:02;;;;;;;0.10;0.10;;;22.70;86.30;;;;;;5029281;28;20033;-80
2022/09/13 10:18:39;;;;;;;0.10;0.10;;;22.80;85.30;;;;;;5028614;28;20029;-84
2022/09/13 10:21:04;;;;;;;0.03;0.03;;;22.70;85.90;;;;;;5026401;28;20101;-84
2022/09/13 10:23:40;;;;;;;0.00;0.00;;;22.70;84.80;;;;;;5025286;28;20022;-88
2022/09/13 10:26:13;;;;;;;0.10;0.10;;;23.20;84.30;;;;;;5029313;28;20140;-85
2022/09/13 10:28:58;;;;;;;0.00;0.00;;;23.10;83.20;;;;;;5029530;28;20040;-79
2022/09/13 10:31:33;;;;;;;0.10;0.10;;;23.20;82.30;;;;;;5022617;28;20099;-86
2022/09/13 10:34:03;;;;;;;0.00;0.00;;;23.00;81.70;;;;;;5026171;28;20082;-85
2022/09/13 10:36:33;;;;;;;0.00;0.00;;;23.30;82.30;;;;;;5024839;28;20310;-85
2022/09/13 10:39:05;;;;;;;0.00;0.00;;;22.80;80.60;;;;;;5006526;28;20409;-82
2022/09/13 10:41:33;;;;;;;0.00;0.00;;;23.60;79.00;;;;;;5023702;28;20081;-87
2022/09/13 10:44:08;;;;;;;0.20;0.20;;;23.70;80.20;;;;;;5024557;28;20017;-88
2022/09/13 10:46:39;;;;;;;0.00;0.00;;;23.80;79.60;;;;;;5026727;28;20029;-91
2022/09/13 10:49:27;;;;;;;0.20;0.20;;;23.90;79.60;;;;;;5031434;28;20599;-83
2022/09/13 10:51:56;;;;;;;0.00;0.00;;;23.40;77.70;;;;;;5023798;28;20056;-83
2022/09/13 10:54:29;;;;;;;0.00;0.00;;;27.30;79.60;;;;;;5010672;28;20017;-92
2022/09/13 10:56:58;;;;;;;;;;;24.10;77.90;;;;;;5023133;28;20032;-78
2022/09/13 10:59:28;;;;;;;0.00;0.00;;;24.20;79.70;;;;;;5016411;28;20296;-85
2022/09/13 11:02:51;;;;;;;0.47;0.47;;;24.50;76.00;;;;;;5012750;28;20620;-85
2022/09/13 11:05:36;;;;;;;0.00;0.00;;;24.40;73.70;;;;;;4932480;29;20047;-84
2022/09/13 11:08:38;;;;;;;0.20;0.20;;;24.70;73.80;;;;;;4930689;29;20532;-92
2022/09/13 11:11:37;;;;;;;0.00;0.00;;;25.00;72.60;;;;;;4930294;29;20091;-80
2022/09/13 11:14:34;;;;;;;0.00;0.00;;;25.10;72.60;;;;;;4924679;29;20385;-81
2022/09/13 11:17:18;;;;;;;0.00;0.00;;;25.10;73.20;;;;;;4911094;29;20361;-86
2022/09/13 11:20:08;;;;;;;0.00;0.00;;;22.30;73.20;;;;;;4937376;29;20046;-83
2022/09/13 11:22:53;;;;;;;0.00;0.00;;;25.30;73.20;;;;;;4924059;29;20040;-78
2022/09/13 11:25:24;;;;;;;0.00;0.00;;;25.30;73.30;;;;;;4929544;29;20027;-86
2022/09/13 11:28:17;;;;;;;0.00;0.00;;;24.90;73.60;;;;;;4931009;29;20171;-82
2022/09/13 11:31:18;;;;;;;0.00;0.00;;;25.50;69.90;;;;;;4927525;29;20039;-79
2022/09/13 11:33:57;;;;;;;0.00;0.00;;;25.70;69.90;;;;;;4928789;29;20054;-89
2022/09/13 11:37:05;;;;;;;0.00;0.00;;;25.60;69.40;;;;;;4998879;28;20033;-79
2022/09/13 11:39:37;;;;;;;0.00;0.00;;;25.60;69.40;;;;;;5008524;28;20099;-86
2022/09/13 11:42:19;;;;;;;0.00;0.00;;;25.70;68.30;;;;;;5027361;28;20061;-80
2022/09/13 11:48:42;;;;;;;0.00;0.00;;;26.00;67.10;;;;;;5023576;28;20234;-80
2022/09/13 11:51:52;;;;;;;0.00;0.00;;;25.90;66.40;;;;;;4928972;29;20098;-90
2022/09/13 11:54:17;;;;;;;0.00;0.00;;;26.00;65.90;;;;;;4934606;29;20068;-75
2022/09/13 11:57:03;;;;;;;0.00;0.00;;;26.80;67.30;;;;;;4939425;29;20043;-85
2022/09/13 12:00:03;;;;;;;0.00;0.00;;;26.20;65.80;;;;;;4935397;29;20039;-82
2022/09/13 12:02:46;;;;;;;0.00;0.00;;;26.20;65.50;;;;;;4912780;29;20871;-90
2022/09/13 12:05:12;;;;;;;0.00;0.00;;;26.20;65.30;;;;;;4926520;28;20224;-88
2022/09/13 12:08:23;;;;;;;0.00;0.00;;;26.20;64.90;;;;;;4931524;29;20250;-78
2022/09/13 12:11:21;;;;;;;0.00;0.00;;;26.30;64.80;;;;;;4909728;28;20810;-87
2022/09/13 12:14:13;;;;;;;0.00;0.00;;;27.30;65.40;;;;;;4912166;29;20040;-79
2022/09/13 12:17:02;;;;;;;0.00;0.00;;;26.30;62.70;;;;;;4908929;29;20035;-81
2022/09/13 12:19:53;;;;;;;0.00;0.00;;;26.50;65.40;;;;;;4903239;28;20039;-86
2022/09/13 12:22:22;;;;;;;0.00;0.00;;;26.60;63.00;;;;;;5027372;23;20044;-83
2022/09/13 12:24:55;;;;;;;0.00;0.00;;;27.00;61.80;;;;;;5068228;28;20038;-85
2022/09/13 12:27:23;;;;;;;;;;;27.30;61.10;;;;;;5068347;28;20703;-85
2022/09/13 12:30:01;;;;;;;0.00;0.00;;;27.10;60.50;;;;;;5085266;28;19969;-87
2022/09/13 12:32:28;;;;;;;0.00;0.00;;;27.10;60.00;;;;;;5086940;28;20028;-85
2022/09/13 12:35:15;;;;;;;0.00;0.00;;;27.10;61.20;;;;;;5087223;28;20048;-82
2022/09/13 12:38:12;;;;;;;0.00;0.00;;;27.30;60.60;;;;;;5098515;28;20035;-85
2022/09/13 12:41:10;;;;;;;0.00;0.00;;;27.70;59.40;;;;;;4987121;28;20060;-90
2022/09/13 12:44:04;;;;;;;0.00;0.00;;;25.30;56.70;;;;;;4989950;28;20336;-80
2022/09/13 12:46:31;;;;;;;0.00;0.00;;;;;;;;;;4984127;28;20510;-88
2022/09/13 12:49:43;;;;;;;0.00;0.00;;;27.70;57.70;;;;;;4996901;28;20022;-88
2022/09/13 12:52:18;;;;;;;0.00;0.00;;;27.60;57.90;;;;;;4954367;28;20042;-78
2022/09/13 12:55:11;;;;;;;0.00;0.00;;;27.60;59.40;;;;;;4990280;28;20031;-77
2022/09/13 12:58:00;;;;;;;0.00;0.00;;;27.90;58.60;;;;;;4993303;28;20042;-80
2022/09/13 13:00:33;;;;;;;0.00;0.00;;;27.80;59.00;;;;;;4969281;28;20046;-94
2022/09/13 13:03:10;;;;;;;0.00;0.00;;;28.10;58.30;;;;;;4989178;28;20030;-83
2022/09/13 13:05:48;;;;;;;0.00;0.00;;;28.10;57.00;;;;;;4987545;28;20034;-95
2022/09/13 13:08:20;;;;;;;0.00;0.00;;;28.60;56.90;;;;;;4967600;28;20707;-82
2022/09/13 13:11:11;;;;;;;0.00;0.00;;;28.80;57.40;;;;;;4962642;28;20043;-84
2022/09/13 13:13:56;;;;;;;0.00;0.00;;;29.00;55.00;;;;;;4948929;28;20034;-80
2022/09/13 13:16:30;;;;;;;0.00;0.00;;;29.40;54.60;;;;;;4962888;28;20062;-85
2022/09/13 13:19:01;;;;;;;0.00;0.00;;;29.70;55.10;;;;;;5061460;28;20433;-78
2022/09/13 13:21:38;;;;;;;0.00;0.00;;;29.80;54.60;;;;;;5045009;28;20060;-77
2022/09/13 13:24:19;;;;;;;0.00;0.00;;;29.80;54.60;;;;;;5064513;28;20021;-83
2022/09/13 13:26:54;;;;;;;0.00;0.00;;;30.00;54.30;;;;;;5062003;28;20199;-90
2022/09/13 13:29:22;;;;;;;0.00;0.00;;;30.10;54.10;;;;;;5064503;28;20023;-84
2022/09/13 13:32:00;;;;;;;0.00;0.00;;;28.00;52.70;;;;;;5047308;28;20116;-78
2022/09/13 13:34:51;;;;;;;0.00;0.00;;;30.20;55.80;;;;;;5064063;28;20048;-78
2022/09/13 13:37:17;;;;;;;0.45;0.22;;;30.60;53.70;;;;;;5069268;28;20096;-82
2022/09/13 13:39:46;;;;;;;0.00;0.00;;;31.00;52.60;;;;;;5067461;28;20106;-90
2022/09/13 13:42:25;;;;;;;0.00;0.00;;;31.20;51.70;;;;;;5065484;28;20116;-78
2022/09/13 13:44:51;;;;;;;0.20;0.20;;;31.50;50.70;;;;;;5045451;28;20490;-80
2022/09/13 13:47:17;;;;;;;0.00;0.00;;;31.90;53.50;;;;;;5046696;28;20025;-87
2022/09/13 13:50:03;;;;;;;0.00;0.00;;;31.70;51.10;;;;;;5063988;28;20104;-81
2022/09/13 13:53:05;;;;;;;0.00;0.00;;;31.80;50.50;;;;;;5045763;28;20119;-85
2022/09/13 13:55:48;;;;;;;0.03;0.03;;;32.40;51.00;;;;;;5066494;28;20025;-90
2022/09/13 13:58:26;;;;;;;0.00;0.00;;;31.90;50.50;;;;;;5046231;28;20078;-85
2022/09/13 14:00:53;;;;;;;0.00;0.00;;;31.90;49.70;;;;;;5069308;28;20114;-85
2022/09/13 14:03:45;;;;;;;0.00;0.00;;;31.60;50.00;;;;;;5065878;28;20051;-81
2022/09/13 14:06:34;;;;;;;0.20;0.20;;;32.10;49.70;;;;;;5062971;28;20075;-85
2022/09/13 14:09:32;;;;;;;0.00;0.00;;;31.50;49.90;;;;;;5061143;28;20275;-78
2022/09/13 14:12:19;;;;;;;0.00;0.00;;;32.50;48.70;;;;;;5063049;28;20467;-82
2022/09/13 14:15:10;;;;;;;0.00;0.00;;;32.60;49.60;;;;;;5062912;28;20024;-80
2022/09/13 14:17:57;;;;;;;0.00;0.00;;;32.70;48.50;;;;;;5064250;28;20021;-88
2022/09/13 14:20:24;;;;;;;0.00;0.00;;;32.60;49.20;;;;;;5062985;28;20245;-81
2022/09/13 14:22:50;;;;;;;0.03;0.03;;;32.50;49.20;;;;;;5062530;28;20349;-82